ADDS METAR Data INFO
IDs: Format: Raw Decoded Include TAF

Data at: 0427 UTC 24 Apr 2018

KBMQ 240353Z AUTO 02005KT 10SM CLR 19/08 A3006 RMK AO2 SLP166 T01890078 $
KBMQ 240253Z AUTO 03003KT 10SM CLR 21/08 A3005 RMK AO2 SLP162 T02060078 53012 $
KBMQ 240153Z AUTO 02004KT 10SM CLR 22/08 A3004 RMK AO2 SLP158 T02220078 $
KBMQ 240053Z AUTO 02004KT 10SM CLR 26/07 A3002 RMK AO2 SLP153 T02560072 $
KBMQ 232353Z AUTO VRB03KT 10SM CLR 28/07 A3002 RMK AO2 SLP151 T02780067 10289 20239 56012 $
KBMQ 232253Z AUTO 10SM CLR 27/06 A3002 RMK AO2 SLP153 T02720061 $
KBMQ 232153Z AUTO 01007KT 10SM CLR 29/07 A3003 RMK AO2 SLP155 T02890067
KBMQ 232053Z AUTO VRB06KT 10SM CLR 28/07 A3005 RMK AO2 SLP164 T02830067 58028
KBMQ 231953Z AUTO 29008KT 10SM CLR 26/07 A3009 RMK AO2 SLP176 T02610067
KBMQ 231853Z AUTO VRB06G17KT 10SM CLR 26/07 A3011 RMK AO2 SLP184 T02610067
KBMQ 231753Z AUTO 30008KT 270V340 10SM CLR 25/06 A3014 RMK AO2 SLP192 T02500061 10256 20089 58007
KBMQ 231653Z AUTO 30008KT 280V340 10SM CLR 23/06 A3015 RMK AO2 SLP198 T02330061
KBMQ 231553Z AUTO 32007G16KT 300V360 10SM CLR 22/06 A3016 RMK AO2 SLP201 T02220061
KBMQ 231453Z AUTO 34007KT 10SM CLR 20/07 A3016 RMK AO2 SLP201 T02000067 50009
KBMQ 231353Z AUTO 28008KT 10SM CLR 17/07 A3016 RMK AO2 SLP203 T01670072
KBMQ 231253Z AUTO 00000KT 10SM CLR 12/07 A3015 RMK AO2 SLP199 T01170067
KBMQ 231153Z AUTO 00000KT 10SM CLR 09/06 A3013 RMK AO2 SLP194 T00940056 10150 20083 53014
KBMQ 231053Z AUTO 05003KT 10SM CLR 09/06 A3012 RMK AO2 SLP189 T00890056
KBMQ 230953Z AUTO 02003KT 10SM CLR 09/06 A3010 RMK AO2 SLP182 T00890056
KBMQ 230853Z AUTO 03003KT 10SM CLR 10/06 A3009 RMK AO2 SLP179 T01000061 51001
KBMQ 230753Z AUTO 00000KT 10SM CLR 12/06 A3009 RMK AO2 SLP178 T01220061
KBMQ 230653Z AUTO 00000KT 10SM CLR 12/06 A3009 RMK AO2 SLP181 T01220061
KBMQ 230553Z AUTO 01005KT 10SM CLR 15/06 A3009 RMK AO2 SLP178 T01500056 10233 20150 402440094 53000
KBMQ 230453Z AUTO 01005KT 10SM CLR 16/06 A3008 RMK AO2 SLP178 T01560056
KBMQ 230353Z AUTO 01006KT 10SM CLR 16/06 A3008 RMK AO2 SLP177 T01560061
KBMQ 230253Z AUTO 01005KT 10SM CLR 17/07 A3009 RMK AO2 SLP180 T01670067 53012
KBMQ 230153Z AUTO 01004KT 10SM CLR 19/06 A3007 RMK AO2 SLP176 T01890061
KBMQ 230053Z AUTO 36005KT 10SM CLR 21/06 A3005 RMK AO2 SLP166 T02110056
KBMQ 222353Z AUTO 36006KT 10SM CLR 23/06 A3005 RMK AO2 SLP166 T02330056 10244 20194 55003
KBMQ 222253Z AUTO 03007KT 10SM CLR 24/06 A3004 RMK AO2 SLP161 T02390061
KBMQ 222153Z AUTO 31007G18KT 10SM CLR 24/06 A3005 RMK AO2 SLP164 T02440061
KBMQ 222053Z AUTO VRB04G16KT 10SM CLR 24/07 A3006 RMK AO2 SLP168 T02390067 56025
KBMQ 221953Z AUTO 32009G17KT 10SM CLR 23/07 A3008 RMK AO2 SLP177 T02330067
KBMQ 221853Z AUTO 34010KT 10SM CLR 22/07 A3010 RMK AO2 SLP184 T02220072
KBMQ 221753Z AUTO 32011G18KT 280V340 10SM CLR 19/08 A3013 RMK AO2 SLP195 T01940078 10200 20094 58010
KBMQ 221653Z AUTO 31009G16KT 10SM CLR 18/08 A3016 RMK AO2 SLP204 T01780078